CheckWX is a tool to help pilots better visualize weather data.  It is not intended as a substitute for an official pre-flight weather briefing.

21:02:46 UTC

EPRZ METAR
Rzeszów-Jasionka Airport
Rzeszów, Poland
Current

33 mins ago

EPRZ 232030Z VRB02KT CAVOK M02/M10 Q1041
Observed
Feb-23 @ 20:30 UTC
Wind
  • Variable at 2 KTS
Visibility
10,000+ meters
Flight Rules
VFR
Cloud Levels
  • Clear skies
Temperature
-2°C / 28°F
Dewpoint
-10°C / 14°F
Humidity
55%
Altimeter
30.74" Hg
Pressure
1040.91 hPa
Previous

1 hour ago

EPRZ 232000Z 33003KT CAVOK M02/M10 Q1041
Observed
Feb-23 @ 20:00 UTC
Wind
  • 330° at 3 KTS
Visibility
10,000+ meters
Flight Rules
VFR
Cloud Levels
  • Clear skies
Temperature
-2°C / 28°F
Dewpoint
-10°C / 14°F
Humidity
55%
Altimeter
30.74" Hg
Pressure
1040.91 hPa
Previous

2 hours ago

EPRZ 231930Z 33003KT CAVOK M03/M10 Q1041
Observed
Feb-23 @ 19:30 UTC
Wind
  • 330° at 3 KTS
Visibility
10,000+ meters
Flight Rules
VFR
Cloud Levels
  • Clear skies
Temperature
-3°C / 27°F
Dewpoint
-10°C / 14°F
Humidity
59%
Altimeter
30.74" Hg
Pressure
1040.91 hPa